Terminal Aerodrome Forecast
Issued by NWS

Home | Current Version | Previous Version | Text Only | Print | Product List | Glossary On
Versions: 1 2 3 4 5 6 7 8 9 10 11 12 13 14
000
FTUS44 KCRP 271126
TAFLRD
TAF
KLRD 271126Z 2712/2812 09008KT P6SM SCT015 BKN250
     FM271400 09012KT P6SM BKN030
     FM271700 11012KT P6SM BKN040
     FM280200 15015G20KT P6SM SCT050
     FM280600 16012KT P6SM BKN025 OVC100=

USA.gov is the U.S. government's official web portal to all federal, state and local government web resources and services.